createdAt,value
2022-12-08T00:01:21.211Z,98398.84
2022-12-08T00:03:49.677Z,98403.16
2022-12-08T00:06:42.072Z,98403.34
2022-12-08T00:09:23.443Z,98406.16
2022-12-08T00:11:57.070Z,98404.06
2022-12-08T00:14:27.576Z,98400.19
2022-12-08T00:16:55.674Z,98389.72
2022-12-08T00:19:24.570Z,98404.72
2022-12-08T00:21:54.870Z,98401.44
2022-12-08T00:24:23.800Z,98403.84
2022-12-08T00:26:51.760Z,98407.09
2022-12-08T00:29:19.698Z,98410.97
2022-12-08T00:31:47.744Z,98410.66
2022-12-08T00:34:16.338Z,98401.75
2022-12-08T00:36:44.693Z,98406.69
2022-12-08T00:39:15.357Z,98391.81
2022-12-08T00:42:00.444Z,98394.63
2022-12-08T00:44:28.446Z,98388.56
2022-12-08T00:46:56.178Z,98391.81
2022-12-08T00:49:24.815Z,98377.09
2022-12-08T00:51:52.910Z,98370.59
2022-12-08T00:54:23.010Z,98374.00
2022-12-08T00:56:50.771Z,98368.59
2022-12-08T00:59:19.271Z,98365.34
2022-12-08T01:01:47.156Z,98367.78
2022-12-08T01:04:16.898Z,98369.00
2022-12-08T01:06:45.626Z,98371.78
2022-12-08T01:09:15.843Z,98366.16
2022-12-08T01:11:46.273Z,98373.03
2022-12-08T01:14:14.568Z,98367.50
2022-12-08T01:16:43.159Z,98366.84
2022-12-08T01:19:12.125Z,98371.97
2022-12-08T01:21:41.026Z,98363.28
2022-12-08T01:24:12.122Z,98367.84
2022-12-08T01:26:40.099Z,98375.81
2022-12-08T01:29:09.552Z,98372.34
2022-12-08T01:31:37.813Z,98368.66
2022-12-08T01:34:06.081Z,98365.28
2022-12-08T01:36:37.113Z,98369.25
2022-12-08T01:39:06.940Z,98370.44
2022-12-08T01:41:36.309Z,98367.38
2022-12-08T01:44:25.074Z,98357.16
2022-12-08T01:46:55.286Z,98360.00
2022-12-08T01:49:27.765Z,98347.56
2022-12-08T01:51:59.990Z,98344.38
2022-12-08T01:54:31.767Z,98338.31
2022-12-08T01:57:03.971Z,98343.06
2022-12-08T01:59:34.729Z,98343.53
2022-12-08T02:02:03.939Z,98344.81
2022-12-08T02:04:31.718Z,98337.59
2022-12-08T02:07:04.947Z,98340.34
2022-12-08T02:09:36.671Z,98334.53
2022-12-08T02:12:05.150Z,98331.84
2022-12-08T02:14:32.943Z,98330.69
2022-12-08T02:17:11.169Z,98330.34
2022-12-08T02:20:08.119Z,98334.16
2022-12-08T02:22:45.932Z,98317.09
2022-12-08T02:25:22.423Z,98321.09
2022-12-08T02:28:01.644Z,98318.38
2022-12-08T02:30:39.064Z,98323.94
2022-12-08T02:34:03.429Z,98330.19
2022-12-08T02:36:39.223Z,98331.22
2022-12-08T02:39:21.992Z,98323.63
2022-12-08T02:41:55.576Z,98313.25
2022-12-08T02:44:31.019Z,98312.56
2022-12-08T02:47:03.127Z,98311.19
2022-12-08T02:49:33.510Z,98304.25
2022-12-08T02:52:08.898Z,98307.53
2022-12-08T02:54:37.731Z,98298.41
2022-12-08T02:57:23.303Z,98299.72
2022-12-08T03:00:05.103Z,98295.78
2022-12-08T03:02:44.739Z,98283.22
2022-12-08T03:05:28.829Z,98285.22
2022-12-08T03:08:03.906Z,98270.00
2022-12-08T03:10:36.720Z,98276.22
2022-12-08T03:13:10.642Z,98284.56
2022-12-08T03:15:40.429Z,98275.53
2022-12-08T03:18:10.932Z,98280.53
2022-12-08T03:20:41.570Z,98281.38
2022-12-08T03:23:12.387Z,98271.25
2022-12-08T03:25:47.732Z,98269.53
2022-12-08T03:28:15.812Z,98273.25
2022-12-08T03:30:47.049Z,98266.75
2022-12-08T03:33:19.691Z,98253.25
2022-12-08T03:35:49.275Z,98240.34
2022-12-08T03:38:18.688Z,98249.56
2022-12-08T03:41:07.899Z,98242.13
2022-12-08T03:43:35.657Z,98238.53
2022-12-08T03:46:03.448Z,98235.03
2022-12-08T03:48:31.182Z,98241.41
2022-12-08T03:51:00.253Z,98235.31
2022-12-08T03:53:28.131Z,98235.84
2022-12-08T03:55:55.849Z,98242.91
2022-12-08T03:58:23.581Z,98237.69
2022-12-08T04:00:51.391Z,98231.81
2022-12-08T04:03:19.174Z,98225.06
2022-12-08T04:05:47.561Z,98228.84
2022-12-08T04:08:16.723Z,98229.00
2022-12-08T04:10:44.568Z,98230.75
2022-12-08T04:13:12.392Z,98227.63
2022-12-08T04:15:40.104Z,98217.53
2022-12-08T04:18:07.921Z,98216.41
2022-12-08T04:20:35.603Z,98209.72
2022-12-08T04:23:03.370Z,98221.00
2022-12-08T04:25:32.664Z,98217.66
2022-12-08T04:28:00.409Z,98215.50
2022-12-08T04:30:28.220Z,98207.78
2022-12-08T04:32:55.956Z,98219.94
2022-12-08T04:35:23.870Z,98212.97
2022-12-08T04:37:51.852Z,98208.28
2022-12-08T04:40:19.882Z,98220.47
2022-12-08T04:42:48.980Z,98208.97
2022-12-08T04:45:16.809Z,98195.16
2022-12-08T04:47:44.692Z,98202.25
2022-12-08T04:50:13.102Z,98200.13
2022-12-08T04:52:41.336Z,98202.72
2022-12-08T04:55:09.920Z,98205.75
2022-12-08T04:57:37.919Z,98206.59
2022-12-08T05:00:08.443Z,98203.22
2022-12-08T05:02:36.740Z,98199.50
2022-12-08T05:05:05.104Z,98191.94
2022-12-08T05:07:33.009Z,98198.91
2022-12-08T05:10:00.853Z,98193.84
2022-12-08T05:12:28.759Z,98189.34
2022-12-08T05:14:56.475Z,98190.75
2022-12-08T05:17:25.529Z,98200.19
2022-12-08T05:19:53.324Z,98192.75
2022-12-08T05:22:21.080Z,98191.91
2022-12-08T05:24:48.804Z,98198.41
2022-12-08T05:27:17.031Z,98199.06
2022-12-08T05:29:44.723Z,98190.47
2022-12-08T05:32:12.460Z,98193.41
2022-12-08T05:34:41.629Z,98193.28
2022-12-08T05:37:09.636Z,98197.84
2022-12-08T05:39:37.475Z,98191.28
2022-12-08T05:42:05.571Z,98192.88
2022-12-08T05:44:33.356Z,98194.41
2022-12-08T05:47:01.099Z,98194.03
2022-12-08T05:49:28.863Z,98186.31
2022-12-08T05:51:57.944Z,98188.38
2022-12-08T05:54:25.676Z,98190.63
2022-12-08T05:56:53.381Z,98188.28
2022-12-08T05:59:21.146Z,98184.38
2022-12-08T06:01:48.934Z,98193.47
2022-12-08T06:04:16.718Z,98183.69
2022-12-08T06:06:44.475Z,98191.59
2022-12-08T06:09:13.640Z,98187.06
2022-12-08T06:11:41.372Z,98185.81
2022-12-08T06:14:12.061Z,98191.09
2022-12-08T06:16:39.964Z,98191.75
2022-12-08T06:19:07.877Z,98189.38
2022-12-08T06:21:35.619Z,98195.81
2022-12-08T06:24:03.323Z,98187.66
2022-12-08T06:26:32.410Z,98185.91
2022-12-08T06:29:01.096Z,98183.72
2022-12-08T06:31:29.264Z,98184.91
2022-12-08T06:33:57.232Z,98180.44
2022-12-08T06:36:27.836Z,98188.50
2022-12-08T06:38:55.684Z,98184.59
2022-12-08T06:41:23.856Z,98184.00
2022-12-08T06:43:53.090Z,98189.56
2022-12-08T06:46:21.626Z,98191.50
2022-12-08T06:48:50.582Z,98189.69
2022-12-08T06:51:21.156Z,98188.78
2022-12-08T06:53:48.908Z,98198.72
2022-12-08T06:56:19.947Z,98193.72
2022-12-08T06:58:52.523Z,98200.09
2022-12-08T07:01:22.283Z,98200.75
2022-12-08T07:03:50.088Z,98202.84
2022-12-08T07:06:21.616Z,98199.34
2022-12-08T07:08:49.353Z,98191.59
2022-12-08T07:11:21.582Z,98192.06
2022-12-08T07:13:50.261Z,98191.31
2022-12-08T07:16:18.090Z,98195.34
2022-12-08T07:18:47.392Z,98194.75
2022-12-08T07:21:17.551Z,98193.13
2022-12-08T07:23:50.167Z,98190.00
2022-12-08T07:26:21.945Z,98190.00
2022-12-08T07:28:49.683Z,98192.84
2022-12-08T07:31:19.982Z,98189.38
2022-12-08T07:33:50.202Z,98195.97
2022-12-08T07:36:18.011Z,98202.69
2022-12-08T07:38:47.303Z,98196.13
2022-12-08T07:41:21.676Z,98210.28
2022-12-08T07:43:51.498Z,98204.72
2022-12-08T07:46:21.932Z,98189.56
2022-12-08T07:48:52.417Z,98186.03
2022-12-08T07:51:20.422Z,98189.16
2022-12-08T07:53:54.263Z,98187.75
2022-12-08T07:56:23.194Z,98193.97
2022-12-08T07:58:50.907Z,98192.75
2022-12-08T08:01:26.567Z,98176.34
2022-12-08T08:03:57.683Z,98184.56
2022-12-08T08:06:25.811Z,98193.38
2022-12-08T08:08:53.581Z,98186.78
2022-12-08T08:11:22.069Z,98187.69
2022-12-08T08:13:50.376Z,98176.09
2022-12-08T08:16:19.217Z,98172.94
2022-12-08T08:18:48.869Z,98174.69
2022-12-08T08:21:44.301Z,98166.69
2022-12-08T08:24:08.647Z,98177.34
2022-12-08T08:26:36.879Z,98169.00
2022-12-08T08:29:05.213Z,98162.66
2022-12-08T08:31:33.068Z,98158.59
2022-12-08T08:34:04.925Z,98167.66
2022-12-08T08:36:34.359Z,98171.31
2022-12-08T08:39:04.330Z,98161.81
2022-12-08T08:41:32.598Z,98171.59
2022-12-08T08:44:00.333Z,98167.78
2022-12-08T08:46:28.191Z,98164.69
2022-12-08T08:48:56.133Z,98169.78
2022-12-08T08:51:24.126Z,98168.94
2022-12-08T08:53:53.374Z,98165.16
2022-12-08T08:56:21.235Z,98174.19
2022-12-08T08:58:50.100Z,98160.66
2022-12-08T09:01:18.677Z,98168.00
2022-12-08T09:03:46.795Z,98159.75
2022-12-08T09:06:15.943Z,98159.25
2022-12-08T09:08:44.376Z,98157.56
2022-12-08T09:11:13.691Z,98157.97
2022-12-08T09:13:41.561Z,98154.69
2022-12-08T09:16:12.388Z,98157.09
2022-12-08T09:18:40.257Z,98155.47
2022-12-08T09:21:10.266Z,98152.19
2022-12-08T09:23:38.121Z,98141.19
2022-12-08T09:26:06.599Z,98143.94
2022-12-08T09:28:35.872Z,98153.75
2022-12-08T09:31:03.973Z,98151.75
2022-12-08T09:33:32.182Z,98153.84
2022-12-08T09:36:03.963Z,98142.31
2022-12-08T09:38:32.542Z,98139.84
2022-12-08T09:41:01.313Z,98138.31
2022-12-08T09:43:48.321Z,98137.44
2022-12-08T09:46:19.326Z,98131.88
2022-12-08T09:48:55.991Z,98134.09
2022-12-08T09:51:26.076Z,98129.97
2022-12-08T09:53:57.661Z,98129.97
2022-12-08T09:56:30.005Z,98119.72
2022-12-08T09:59:02.591Z,98115.59
2022-12-08T10:01:33.101Z,98126.59
2022-12-08T10:04:01.991Z,98115.34
2022-12-08T10:06:34.492Z,98114.00
2022-12-08T10:09:21.200Z,98111.97
2022-12-08T10:11:56.734Z,98113.88
2022-12-08T10:14:31.139Z,98096.59
2022-12-08T10:17:02.179Z,98103.22
2022-12-08T10:19:30.912Z,98099.88
2022-12-08T10:21:59.030Z,98106.53
2022-12-08T10:24:32.723Z,98106.53
2022-12-08T10:27:01.383Z,98100.03
2022-12-08T10:29:30.558Z,98091.13
2022-12-08T10:32:00.628Z,98092.63
2022-12-08T10:34:28.455Z,98090.56
2022-12-08T10:36:58.934Z,98098.06
2022-12-08T10:39:38.368Z,98084.44
2022-12-08T10:42:10.608Z,98084.44
2022-12-08T10:44:54.466Z,98082.00
2022-12-08T10:47:24.100Z,98090.16
2022-12-08T10:50:09.516Z,98085.03
2022-12-08T10:52:41.220Z,98081.84
2022-12-08T10:55:16.181Z,98079.59
2022-12-08T10:57:43.980Z,98080.16
2022-12-08T11:00:16.660Z,98067.66
2022-12-08T11:02:59.616Z,98069.97
2022-12-08T11:05:30.489Z,98066.69
2022-12-08T11:07:58.929Z,98058.59
2022-12-08T11:10:37.994Z,98051.69
2022-12-08T11:13:11.504Z,98040.16
2022-12-08T11:15:41.526Z,98044.91
2022-12-08T11:18:23.236Z,98040.88
2022-12-08T11:21:01.221Z,98041.28
2022-12-08T11:23:30.359Z,98036.00
2022-12-08T11:26:06.038Z,98038.13
2022-12-08T11:28:33.955Z,98030.03
2022-12-08T11:31:14.268Z,98027.06
2022-12-08T11:33:43.894Z,98032.56
2022-12-08T11:36:16.578Z,98029.81
2022-12-08T11:38:48.247Z,98020.75
2022-12-08T11:41:18.860Z,98031.16
2022-12-08T11:43:54.128Z,98027.72
2022-12-08T11:46:27.895Z,98022.44
2022-12-08T11:49:06.395Z,98019.44
2022-12-08T11:51:38.596Z,98016.69
2022-12-08T11:54:14.851Z,98019.75
2022-12-08T11:56:46.212Z,98010.31
2022-12-08T11:59:23.009Z,98016.75
2022-12-08T12:01:52.497Z,98019.41
2022-12-08T12:04:25.755Z,98013.88
2022-12-08T12:07:26.779Z,98007.72
2022-12-08T12:10:26.501Z,98008.66
2022-12-08T12:13:06.094Z,98012.38
2022-12-08T12:16:06.664Z,98011.19
2022-12-08T12:18:40.257Z,98005.34
2022-12-08T12:21:13.462Z,98004.84
2022-12-08T12:23:45.391Z,97999.19
2022-12-08T12:26:20.936Z,98001.69
2022-12-08T12:28:53.079Z,97995.66
2022-12-08T12:31:25.152Z,97998.38
2022-12-08T12:33:56.600Z,97992.31
2022-12-08T12:36:25.731Z,97992.44
2022-12-08T12:39:03.218Z,97993.88
2022-12-08T12:41:37.817Z,97985.06
2022-12-08T12:44:24.398Z,97983.06
2022-12-08T12:46:58.401Z,97983.03
2022-12-08T12:50:07.764Z,97976.31
2022-12-08T12:52:46.747Z,97976.63
2022-12-08T12:55:22.481Z,97974.38
2022-12-08T12:57:53.471Z,97973.13
2022-12-08T13:00:23.042Z,97973.31
2022-12-08T13:02:52.838Z,97973.38
2022-12-08T13:05:26.176Z,97965.34
2022-12-08T13:07:56.799Z,97961.72
2022-12-08T13:10:27.611Z,97957.16
2022-12-08T13:13:08.747Z,97949.00
2022-12-08T13:15:39.583Z,97957.81
2022-12-08T13:18:08.675Z,97953.53
2022-12-08T13:20:47.393Z,97954.25
2022-12-08T13:23:29.266Z,97957.66
2022-12-08T13:26:18.564Z,97950.72
2022-12-08T13:29:14.126Z,97947.78
2022-12-08T13:31:49.858Z,97951.59
2022-12-08T13:34:22.750Z,97950.44
2022-12-08T13:37:09.095Z,97945.47
2022-12-08T13:39:43.349Z,97947.34
2022-12-08T13:42:20.595Z,97948.53
2022-12-08T13:48:13.628Z,97934.81
2022-12-08T13:54:42.489Z,97944.78
2022-12-08T13:59:25.448Z,97936.78
2022-12-08T14:01:57.045Z,97941.34
2022-12-08T14:07:14.777Z,97944.47
2022-12-08T14:09:44.436Z,97939.81
2022-12-08T14:12:19.491Z,97935.97
2022-12-08T14:15:05.443Z,97938.59
2022-12-08T14:17:34.620Z,97940.84
2022-12-08T14:20:15.010Z,97945.84
2022-12-08T14:22:43.142Z,97935.28
2022-12-08T14:25:15.849Z,97945.53
2022-12-08T14:27:44.297Z,97936.72
2022-12-08T14:30:21.099Z,97934.47
2022-12-08T14:32:50.639Z,97935.78
2022-12-08T14:35:26.357Z,97940.72
2022-12-08T14:37:56.554Z,97942.34
2022-12-08T14:40:30.756Z,97950.44
2022-12-08T14:43:13.733Z,97951.84
2022-12-08T14:45:48.610Z,97960.72
2022-12-08T14:48:20.775Z,97955.53
2022-12-08T14:50:59.610Z,97952.56
2022-12-08T14:53:31.340Z,97951.66
2022-12-08T14:56:00.551Z,97950.50
2022-12-08T14:58:31.356Z,97950.19
2022-12-08T15:01:01.201Z,97955.06
2022-12-08T15:03:32.078Z,97943.41
2022-12-08T15:06:04.200Z,97953.19
2022-12-08T15:08:32.740Z,97951.06
2022-12-08T15:11:28.249Z,97943.78
2022-12-08T15:13:56.224Z,97940.97
2022-12-08T15:16:27.914Z,97941.78
2022-12-08T15:19:05.457Z,97935.13
2022-12-08T15:21:39.078Z,97938.50
2022-12-08T15:24:07.562Z,97934.97
2022-12-08T15:26:42.401Z,97930.47
2022-12-08T15:29:17.706Z,97931.84
2022-12-08T15:31:45.622Z,97928.63
2022-12-08T15:34:13.445Z,97936.81
2022-12-08T15:36:42.927Z,97934.56
2022-12-08T15:39:22.559Z,97928.41
2022-12-08T15:41:51.689Z,97925.72
2022-12-08T15:44:19.580Z,97927.94
2022-12-08T15:46:47.349Z,97934.22
2022-12-08T15:49:18.622Z,97925.56
2022-12-08T15:51:46.586Z,97930.66
2022-12-08T15:54:14.400Z,97936.25
2022-12-08T15:57:10.822Z,97930.09
2022-12-08T15:59:35.404Z,97935.19
2022-12-08T16:02:03.225Z,97940.44
2022-12-08T16:07:26.985Z,97924.50
2022-12-08T16:09:56.170Z,97920.84
2022-12-08T16:18:28.487Z,97911.25
2022-12-08T16:23:45.677Z,97924.94
2022-12-08T16:26:35.613Z,97917.94
2022-12-08T16:29:05.542Z,97913.44
2022-12-08T16:31:35.149Z,97919.00
2022-12-08T16:34:03.122Z,97917.06
2022-12-08T16:36:30.862Z,97926.59
2022-12-08T16:38:58.653Z,97916.53
2022-12-08T16:41:44.124Z,97922.56
2022-12-08T16:44:11.921Z,97912.47
2022-12-08T16:46:41.039Z,97916.56
2022-12-08T16:49:10.119Z,97924.44
2022-12-08T16:51:37.941Z,97910.28
2022-12-08T16:54:05.790Z,97911.47
2022-12-08T16:56:33.889Z,97914.41
2022-12-08T16:59:02.664Z,97910.03
2022-12-08T17:01:30.550Z,97909.59
2022-12-08T17:04:30.930Z,97897.25
2022-12-08T17:06:47.717Z,97911.53
2022-12-08T17:09:15.515Z,97915.31
2022-12-08T17:11:44.001Z,97916.41
2022-12-08T17:14:12.296Z,97915.53
2022-12-08T17:16:40.205Z,97910.94
2022-12-08T17:19:09.573Z,97908.69
2022-12-08T17:21:37.377Z,97900.78
2022-12-08T17:24:05.330Z,97909.81
2022-12-08T17:26:33.161Z,97919.38
2022-12-08T17:29:02.812Z,97910.13
2022-12-08T17:31:32.237Z,97907.78
2022-12-08T17:34:00.901Z,97907.66
2022-12-08T17:36:30.435Z,97904.38
2022-12-08T17:39:00.552Z,97899.91
2022-12-08T17:41:29.185Z,97897.84
2022-12-08T17:43:57.044Z,97900.97
2022-12-08T17:46:24.959Z,97905.84
2022-12-08T17:48:53.000Z,97905.50
2022-12-08T17:51:20.838Z,97902.59
2022-12-08T17:53:49.967Z,97913.84
2022-12-08T17:56:20.064Z,97919.38
2022-12-08T17:58:54.045Z,97908.72
2022-12-08T18:01:22.893Z,97904.41
2022-12-08T18:03:50.835Z,97908.13
2022-12-08T18:06:18.571Z,97903.63
2022-12-08T18:08:46.401Z,97904.88
2022-12-08T18:11:18.212Z,97902.75
2022-12-08T18:13:46.647Z,97906.72
2022-12-08T18:16:15.200Z,97916.81
2022-12-08T18:18:43.071Z,97917.84
2022-12-08T18:21:11.717Z,97919.19
2022-12-08T18:23:40.493Z,97917.63
2022-12-08T18:26:09.508Z,97902.72
2022-12-08T18:28:39.024Z,97914.59
2022-12-08T18:31:10.160Z,97904.38
2022-12-08T18:33:38.249Z,97901.09
2022-12-08T18:36:09.312Z,97902.22
2022-12-08T18:38:37.327Z,97900.53
2022-12-08T18:41:06.743Z,97901.38
2022-12-08T18:43:34.720Z,97899.97
2022-12-08T18:46:05.547Z,97893.00
2022-12-08T18:48:33.389Z,97885.72
2022-12-08T18:51:01.149Z,97890.38
2022-12-08T18:53:29.059Z,97887.06
2022-12-08T18:55:56.777Z,97881.44
2022-12-08T18:58:26.767Z,97880.75
2022-12-08T19:00:54.541Z,97891.31
2022-12-08T19:03:23.643Z,97879.94
2022-12-08T19:05:51.444Z,97889.63
2022-12-08T19:08:19.519Z,97878.38
2022-12-08T19:10:47.364Z,97883.84
2022-12-08T19:13:15.035Z,97882.28
2022-12-08T19:15:42.736Z,97879.47
2022-12-08T19:18:10.577Z,97871.63
2022-12-08T19:20:39.640Z,97872.69
2022-12-08T19:23:07.432Z,97874.44
2022-12-08T19:25:35.180Z,97872.75
2022-12-08T19:28:03.386Z,97875.56
2022-12-08T19:30:32.203Z,97871.19
2022-12-08T19:33:00.129Z,97864.84
2022-12-08T19:35:30.291Z,97876.78
2022-12-08T19:37:59.463Z,97877.34
2022-12-08T19:40:41.384Z,97871.31
2022-12-08T19:43:34.476Z,97866.22
2022-12-08T19:46:08.271Z,97870.31
2022-12-08T19:48:38.061Z,97870.19
2022-12-08T19:51:06.263Z,97861.75
2022-12-08T19:53:35.383Z,97866.69
2022-12-08T19:56:03.260Z,97863.09
2022-12-08T19:58:31.114Z,97862.09
2022-12-08T20:00:59.000Z,97868.25
2022-12-08T20:03:26.939Z,97856.34
2022-12-08T20:05:54.855Z,97857.66
2022-12-08T20:08:22.781Z,97862.50
2022-12-08T20:10:55.827Z,97844.38
2022-12-08T20:13:41.012Z,97852.66
2022-12-08T20:16:09.880Z,97853.44
2022-12-08T20:18:38.429Z,97853.03
2022-12-08T20:21:07.622Z,97845.97
2022-12-08T20:23:35.804Z,97849.63
2022-12-08T20:26:07.176Z,97856.34
2022-12-08T20:28:35.359Z,97866.44
2022-12-08T20:31:03.648Z,97860.75
2022-12-08T20:33:34.468Z,97858.59
2022-12-08T20:36:07.425Z,97860.41
2022-12-08T20:38:35.202Z,97863.47
2022-12-08T20:41:02.949Z,97867.56
2022-12-08T20:43:32.005Z,97861.16
2022-12-08T20:45:59.852Z,97861.22
2022-12-08T20:48:27.862Z,97863.66
2022-12-08T20:50:55.899Z,97859.13
2022-12-08T20:53:23.805Z,97867.28
2022-12-08T20:55:51.841Z,97857.13
2022-12-08T20:58:19.657Z,97860.97
2022-12-08T21:00:49.207Z,97866.09
2022-12-08T21:03:20.966Z,97856.31
2022-12-08T21:05:50.314Z,97851.69
2022-12-08T21:08:19.225Z,97844.41
2022-12-08T21:10:53.487Z,97852.81
2022-12-08T21:13:21.546Z,97860.06
2022-12-08T21:15:51.015Z,97866.06
2022-12-08T21:18:18.990Z,97861.63
2022-12-08T21:20:48.211Z,97851.47
2022-12-08T21:23:17.160Z,97856.19
2022-12-08T21:25:47.280Z,97854.16
2022-12-08T21:28:15.398Z,97848.03
2022-12-08T21:30:43.823Z,97849.53
2022-12-08T21:33:13.024Z,97844.63
2022-12-08T21:35:41.262Z,97849.63
2022-12-08T21:38:09.296Z,97850.88
2022-12-08T21:40:37.710Z,97855.63
2022-12-08T21:43:05.706Z,97845.88
2022-12-08T21:45:35.010Z,97849.81
2022-12-08T21:48:10.842Z,97852.78
2022-12-08T21:50:41.092Z,97850.41
2022-12-08T21:53:09.100Z,97855.97
2022-12-08T21:55:37.218Z,97856.81
2022-12-08T21:58:05.596Z,97851.88
2022-12-08T22:00:33.491Z,97860.47
2022-12-08T22:03:01.565Z,97853.97
2022-12-08T22:05:29.586Z,97851.19
2022-12-08T22:07:58.853Z,97857.97
2022-12-08T22:10:26.733Z,97861.38
2022-12-08T22:12:54.607Z,97855.38
2022-12-08T22:15:22.429Z,97853.66
2022-12-08T22:17:50.421Z,97857.69
2022-12-08T22:20:18.708Z,97865.47
2022-12-08T22:22:46.907Z,97862.50
2022-12-08T22:25:16.192Z,97868.44
2022-12-08T22:27:44.021Z,97871.09
2022-12-08T22:30:12.727Z,97870.03
2022-12-08T22:32:40.776Z,97869.19
2022-12-08T22:35:09.466Z,97859.28
2022-12-08T22:37:37.482Z,97854.31
2022-12-08T22:40:06.680Z,97850.28
2022-12-08T22:42:35.840Z,97850.41
2022-12-08T22:45:03.549Z,97852.34
2022-12-08T22:47:31.254Z,97851.34
2022-12-08T22:49:58.926Z,97846.16
2022-12-08T22:52:26.626Z,97843.44
2022-12-08T22:54:54.452Z,97833.66
2022-12-08T22:57:22.314Z,97820.88
2022-12-08T22:59:51.461Z,97827.22
2022-12-08T23:02:19.279Z,97837.16
2022-12-08T23:04:47.310Z,97835.81
2022-12-08T23:07:15.279Z,97835.09
2022-12-08T23:09:43.505Z,97817.97
2022-12-08T23:12:11.235Z,97825.75
2022-12-08T23:14:39.065Z,97820.47
2022-12-08T23:17:08.331Z,97823.28
2022-12-08T23:19:36.916Z,97828.97
2022-12-08T23:22:04.683Z,97826.88
2022-12-08T23:24:32.491Z,97826.13
2022-12-08T23:27:00.302Z,97816.91
2022-12-08T23:29:28.002Z,97814.84
2022-12-08T23:31:55.993Z,97813.66
2022-12-08T23:34:25.103Z,97811.06
2022-12-08T23:36:52.976Z,97810.63
2022-12-08T23:39:24.127Z,97805.97
2022-12-08T23:41:52.236Z,97795.09
2022-12-08T23:44:20.234Z,97796.16
2022-12-08T23:46:48.083Z,97789.59
2022-12-08T23:49:17.001Z,97783.84
2022-12-08T23:51:46.155Z,97777.19
2022-12-08T23:54:14.208Z,97764.78
2022-12-08T23:56:42.210Z,97763.44
2022-12-08T23:59:10.474Z,97768.44
